x

Halibut Bank (46146) Wave Buoy

12:00am - Tue 24th Jan 2017 All times are PST. -8 hours from GMT.

  • Sig Wave height 0.3ft
  • Peak Period 3s
  • Wind
    2mph, 4mph gusts
  • Sea Temp 43°f
  • 空気 Temp 40°f
  • Sea Pressure 1016.6mb
  • Halibut Bank
  • Halibut Bank

More Historic Weather Station data

Upgrade to MSW Pro to gain access to the past 30 days of data for over 8000 Wavebouys and Weather Stations around the globe.

Join Pro

Comparision Forecast

View Surf forecast
   
Tue 01/24 12:00am 0.3ft 3s 2 4 mph 1016.6mb 43f 40f
Mon 01/23 11:00pm 0.3ft 3s 4
mph
1016.3mb 43f 41f
10:00pm 0.3ft 3s 7
mph
1015.6mb 43f 41f
9:00pm 0.7ft 6s 7 9 mph 1015.2mb 43f 42f
8:00pm 0.7ft 3s 4 7 mph 1014.7mb 43f 42f
7:00pm 1ft 3s 4 7 mph 1014mb 44f 44f
6:00pm 1.6ft 3s 13
mph
1013.2mb 43f 44f
5:00pm 1.6ft 3s 13 16 mph 1012.8mb 43f 44f
4:00pm 1.6ft 4s 13 16 mph 1012.2mb 43f 44f
3:00pm 2ft 4s 16 18 mph 1011.6mb 43f 44f
2:00pm 2ft 4s 16 18 mph 1011.2mb 43f 44f
1:00pm 1.3ft 3s 13 16 mph 1011.1mb 43f 43f
12:00pm 1ft 3s 13 16 mph 1011.1mb 43f 42f
11:00am 0.7ft 3s 13 16 mph 1010.9mb 43f 42f
10:00am 0.7ft 3s 11 13 mph 1010.6mb 43f 41f
9:00am 0.7ft 3s 9 11 mph 1010mb 43f 40f
8:00am 0.7ft 2s 11
mph
1009.1mb 42f 40f
7:00am 0.7ft 2s 11 13 mph 1008.4mb 43f 41f
6:00am 1ft 2s 11 13 mph 1007.5mb 43f 41f
5:00am 0.7ft 2s 11 13 mph 1006.8mb 43f 41f
4:00am 1ft 3s 9 11 mph 1006.1mb 43f 42f
3:00am 0.7ft 3s 9 11 mph 1005.5mb 43f 42f
2:00am 1ft 3s 4 7 mph 1005mb 43f 43f
1:00am 1ft 3s 7 11 mph 1004.4mb 43f 43f
12:00am 1ft 3s 2 4 mph 1003.9mb 43f 43f
Sun 01/22 11:00pm 1ft 3s 4 9 mph 1003.6mb 43f 43f
10:00pm 1ft 2s 9 11 mph 1003.3mb 43f 43f
9:00pm 1ft 2s 9 11 mph 1002.9mb 43f 44f
8:00pm 1ft 2s 9 11 mph 1002.4mb 43f 43f
7:00pm 1.3ft 2s 9 11 mph 1002.2mb 43f 43f
6:00pm 1.3ft 3s 13 16 mph 1001.7mb 43f 44f
5:00pm 1.6ft 4s 16 18 mph 1001.5mb 43f 44f
4:00pm 1.6ft 3s 18 22 mph 1001mb 43f 43f
3:00pm 1.3ft 2s 18 20 mph 1000.4mb 43f 43f
2:00pm 1.3ft 3s 13 16 mph 1000.2mb 43f 42f
1:00pm 0.7ft 2s 16 20 mph 1000mb 43f 42f
12:00pm 0.7ft 3s 11 13 mph 999.7mb 43f 44f
11:00am 0.7ft 3s 7 11 mph 999mb 43f 43f
10:00am 0.7ft 3s 7 9 mph 998.1mb 43f 43f
9:00am 1ft 3s 9 11 mph 997.2mb 43f 43f
8:00am 1ft 3s 9
mph
996.4mb 43f 43f
7:00am 1ft 3s 2 4 mph 996.4mb 43f 44f
6:00am 1.3ft 3s 13 18 mph 997.1mb 43f 44f
5:00am 1.3ft 3s 13
mph
998.7mb 43f 44f
4:00am 1.3ft 3s 13 20 mph 999.7mb 43f 45f
3:00am 1.6ft 3s 13 16 mph 1000.3mb 44f 44f
2:00am 1.6ft 3s 18 22 mph 1000.7mb 44f 45f
1:00am 1ft 2s 18 20 mph 1001.5mb 43f 46f
12:00am 1.3ft 3s 13 22 mph 1001.5mb 43f 45f
Sat 01/21 11:00pm 1.3ft 3s 16 20 mph 1001.1mb 44f 45f
10:00pm 1.3ft 3s 18
mph
1000.7mb 44f 45f
9:00pm 0.7ft 3s 13 18 mph 1000.7mb 44f 45f
8:00pm 0.7ft 3s 11 13 mph 999.9mb 43f 44f
7:00pm 1ft 3s 9
mph
999.3mb 43f 46f
6:00pm 1ft 3s 9 11 mph 998.4mb 43f 46f
5:00pm 1ft 3s 11 13 mph 997.8mb 43f 45f
4:00pm 1ft 3s 9
mph
997.3mb 43f 45f
3:00pm 0.7ft 3s 9 13 mph 996.7mb 43f 45f
2:00pm 1ft 3s 9 11 mph 996.1mb 43f 44f
1:00pm 1.3ft 3s 9 13 mph 995.6mb 44f 46f
12:00pm 1.3ft 3s 11 13 mph 995mb 43f 47f
11:00am 1ft 3s 9 13 mph 994.7mb 43f 45f
10:00am 1ft 3s 9 11 mph 994.2mb 43f 45f
9:00am 1ft 3s 9 11 mph 993.4mb 43f 45f
8:00am 1.3ft 3s 13 18 mph 992.6mb 44f 44f
7:00am 1ft 3s 13 16 mph 992.1mb 44f 45f
6:00am 1ft 3s 13 16 mph 991.6mb 44f 44f
5:00am 0.7ft 2s 11 13 mph 991.5mb 44f 44f
4:00am 0.7ft 2s 11 13 mph 991.3mb 45f 43f
3:00am 0.3ft 2s 9 13 mph 990.9mb 45f 44f
2:00am 0.3ft 2s 9 11 mph 990.3mb 45f 45f
1:00am 0.3ft 3s 9 13 mph 989.9mb 45f 45f
12:00am 0.3ft 7s  -  mph 989.5mb 45f 44f
Fri 01/20 11:00pm 0.7ft 6s 2 4 mph 989.4mb 45f 44f
10:00pm 0.3ft 3s 4
mph
988.9mb 45f 44f
9:00pm 0.7ft 7s 2
mph
988.7mb 46f 44f
8:00pm 0.7ft 3s 4 7 mph 988mb 46f 45f
7:00pm 0.7ft 3s 9 11 mph 987.6mb 46f 45f
6:00pm 0.7ft 2s 9 11 mph 987.4mb 46f 45f
5:00pm 0.7ft 2s 7 9 mph 987.2mb 45f 45f
4:00pm 0.7ft 2s 9
mph
987.1mb 45f 45f
3:00pm 1ft 2s 11
mph
986.9mb 45f 45f
2:00pm 0.7ft 4s 11 13 mph 986.9mb 45f 45f
1:00pm 0.7ft 4s 7 9 mph 987.3mb 45f 45f
12:00pm 0.7ft 3s 7 9 mph 987.9mb 45f 45f
11:00am 0.7ft 4s 7 9 mph 988.8mb 45f 44f
10:00am 1ft 4s 7 9 mph 989.3mb 45f 44f